Impacts METAR Board
IDs:

KABQ - Albuquerque Intl, NM, US

Updated at: 2200 UTC 01 Feb 2023
Potential Impact None Slight Moderate High
Time 01/10Z 01/11Z 01/12Z 01/13Z 01/14Z 01/15Z 01/16Z 01/17Z 01/18Z 01/19Z 01/20Z 01/21Z 01/22Z
Temp29 27 26 26 26 27 30 34 38 41 46 49 50
Dewpt17 16 15 14 14 13 15 16 17 17 16 15 14
Altim30.15 30.15 30.15 30.16 30.17 30.17 30.20 30.19 30.19 30.17 30.11 30.08 30.07
VIS10 10 10 10 10 10 10 10 10 10 10 10 10
CIG-- -- -- -- -- -- -- -- -- -- -- -- --
CoverCLRCLRCLRCLRFEWFEWFEWCLRCLRFEWFEWFEWFEW
FltCatVFRVFRVFRVFRVFRVFRVFRVFRVFRVFRVFRVFRVFR
WX--------------------------
WDir1010202010360360350034010340360
WSpd7 8 8 9 10 8 11 9 6 4 8 11 13
WGst-- -- -- -- -- -- -- -- -- -- -- -- --
R03/21
XWnd 4 5 3 4 6 6 8 7 VRB 4 5 10 9
HWnd 6 7 7 8 8 6 8 5 VRB 2 7 5 9
R08/26
XWnd 7 8 8 8 10 8 11 9 VRB 4 8 10 13
HWnd 1 1 3 3 2 -0 -0 -2 VRB -1 1 -4 -0
R12/30
XWnd 6 7 8 9 9 6 9 6 VRB 2 7 6 10
HWnd -3 -4 -3 -3 -5 -5 -7 -7 VRB -3 -4 -9 -8
Raw hourly METARs
KABQ 010952Z 01007KT 10SM CLR M02/M08 A3015 RMK AO2 SLP204 T10171083
KABQ 011052Z 01008KT 10SM CLR M03/M09 A3015 RMK AO2 SLP204 T10281089
KABQ 011152Z 02008KT 10SM CLR M03/M09 A3015 RMK AO2 SLP211 T10331094 10017 21033 51004
KABQ 011252Z 02009KT 10SM CLR M03/M10 A3016 RMK AO2 SLP216 T10331100
KABQ 011352Z 01010KT 10SM FEW200 M03/M10 A3017 RMK AO2 SLP224 T10331100
KABQ 011452Z 36008KT 10SM FEW200 M03/M11 A3017 RMK AO2 SLP225 T10281106 51006
KABQ 011552Z 36011KT 10SM FEW200 M01/M09 A3020 RMK AO2 SLP232 T10111094
KABQ 011652Z 35009KT 10SM CLR 01/M09 A3019 RMK AO2 SLP230 T00111089
KABQ 011752Z VRB06KT 10SM CLR 03/M08 A3019 RMK AO2 SLP222 T00331083 10033 21033 50003
KABQ 011852Z 34004KT 10SM FEW060 FEW250 05/M08 A3017 RMK AO2 SLP215 T00501083
KABQ 011952Z 01008KT 10SM FEW070 08/M09 A3011 RMK AO2 SLP191 T00781089
KABQ 012052Z 34011KT 10SM FEW070 09/M09 A3008 RMK AO2 SLP177 T00941094 58030
KABQ 012152Z 36013KT 10SM FEW080 10/M10 A3007 RMK AO2 SLP172 T01001100



Page loaded:  22:31 UTC  |   02:31 PM Pacific  |   03:31 PM Mountain  |   04:31 PM Central  |   05:31 PM Eastern

 

ADVISORIES

FORECASTS

FORECASTS

OBSERVATIONS

USER TOOLS

ABOUT US